sensor_id;sensor_type;location;lat;lon;timestamp;pressure;altitude;pressure_sealevel;temperature;humidity
35307;BME280;21420;52.196;21.416;2023-07-29T00:01:32;99471.27;;;16.20;68.45
35307;BME280;21420;52.196;21.416;2023-07-29T00:03:59;99475.38;;;16.21;68.43
35307;BME280;21420;52.196;21.416;2023-07-29T00:06:26;99476.80;;;16.22;68.35
35307;BME280;21420;52.196;21.416;2023-07-29T00:08:53;99478.68;;;16.24;68.49
35307;BME280;21420;52.196;21.416;2023-07-29T00:11:20;99480.19;;;16.26;68.35
35307;BME280;21420;52.196;21.416;2023-07-29T00:13:46;99482.79;;;16.29;68.46
35307;BME280;21420;52.196;21.416;2023-07-29T00:16:13;99480.49;;;16.31;68.46
35307;BME280;21420;52.196;21.416;2023-07-29T00:18:43;99483.20;;;16.33;68.64
35307;BME280;21420;52.196;21.416;2023-07-29T00:21:09;99486.81;;;16.34;68.56
35307;BME280;21420;52.196;21.416;2023-07-29T00:23:36;99488.23;;;16.35;68.49
35307;BME280;21420;52.196;21.416;2023-07-29T00:26:03;99486.20;;;16.33;68.34
35307;BME280;21420;52.196;21.416;2023-07-29T00:28:29;99486.42;;;16.30;68.43
35307;BME280;21420;52.196;21.416;2023-07-29T00:30:56;99483.34;;;16.27;68.51
35307;BME280;21420;52.196;21.416;2023-07-29T00:33:23;99488.23;;;16.26;68.45
35307;BME280;21420;52.196;21.416;2023-07-29T00:35:50;99492.98;;;16.24;68.39
35307;BME280;21420;52.196;21.416;2023-07-29T00:38:17;99497.88;;;16.22;68.72
35307;BME280;21420;52.196;21.416;2023-07-29T00:40:43;99498.81;;;16.21;68.47
35307;BME280;21420;52.196;21.416;2023-07-29T00:43:10;99501.89;;;16.19;68.61
35307;BME280;21420;52.196;21.416;2023-07-29T00:45:37;99506.08;;;16.19;68.76
35307;BME280;21420;52.196;21.416;2023-07-29T00:48:06;99508.13;;;16.19;68.74
35307;BME280;21420;52.196;21.416;2023-07-29T00:50:33;99510.03;;;16.17;68.57
35307;BME280;21420;52.196;21.416;2023-07-29T00:53:00;99508.52;;;16.14;68.47
35307;BME280;21420;52.196;21.416;2023-07-29T00:55:27;99510.34;;;16.15;68.53
35307;BME280;21420;52.196;21.416;2023-07-29T00:57:54;99510.18;;;16.13;68.61
35307;BME280;21420;52.196;21.416;2023-07-29T01:00:21;99511.13;;;16.10;68.68
35307;BME280;21420;52.196;21.416;2023-07-29T01:02:48;99515.31;;;16.09;68.80
35307;BME280;21420;52.196;21.416;2023-07-29T01:05:16;99514.05;;;16.10;68.78
35307;BME280;21420;52.196;21.416;2023-07-29T01:07:51;99512.14;;;16.13;68.80
35307;BME280;21420;52.196;21.416;2023-07-29T01:10:41;99512.94;;;16.15;68.81
35307;BME280;21420;52.196;21.416;2023-07-29T01:16:21;99512.47;;;16.20;68.94
35307;BME280;21420;52.196;21.416;2023-07-29T01:18:52;99515.16;;;16.21;68.87
35307;BME280;21420;52.196;21.416;2023-07-29T01:21:21;99515.95;;;16.23;68.92
35307;BME280;21420;52.196;21.416;2023-07-29T01:23:52;99518.61;;;16.25;68.89
35307;BME280;21420;52.196;21.416;2023-07-29T01:26:19;99519.09;;;16.27;68.90
35307;BME280;21420;52.196;21.416;2023-07-29T01:28:46;99519.49;;;16.27;68.97
35307;BME280;21420;52.196;21.416;2023-07-29T01:31:30;99522.48;;;16.26;69.07
35307;BME280;21420;52.196;21.416;2023-07-29T01:34:09;99522.73;;;16.24;68.94
35307;BME280;21420;52.196;21.416;2023-07-29T01:36:41;99521.94;;;16.25;68.89
35307;BME280;21420;52.196;21.416;2023-07-29T01:39:14;99523.67;;;16.26;69.13
35307;BME280;21420;52.196;21.416;2023-07-29T01:41:41;99522.41;;;16.25;69.08
35307;BME280;21420;52.196;21.416;2023-07-29T01:44:10;99520.92;;;16.22;69.06
35307;BME280;21420;52.196;21.416;2023-07-29T01:46:38;99521.46;;;16.20;68.95
35307;BME280;21420;52.196;21.416;2023-07-29T01:49:06;99520.91;;;16.16;68.97
35307;BME280;21420;52.196;21.416;2023-07-29T01:51:32;99527.46;;;16.12;69.02
35307;BME280;21420;52.196;21.416;2023-07-29T01:53:59;99529.58;;;16.03;68.91
35307;BME280;21420;52.196;21.416;2023-07-29T01:56:26;99534.46;;;15.94;68.75
35307;BME280;21420;52.196;21.416;2023-07-29T01:58:54;99533.42;;;15.89;68.91
35307;BME280;21420;52.196;21.416;2023-07-29T02:01:21;99538.16;;;15.83;68.83
35307;BME280;21420;52.196;21.416;2023-07-29T02:03:48;99541.77;;;15.78;68.85
35307;BME280;21420;52.196;21.416;2023-07-29T02:06:21;99544.04;;;15.73;68.94
35307;BME280;21420;52.196;21.416;2023-07-29T02:08:48;99543.29;;;15.67;69.01
35307;BME280;21420;52.196;21.416;2023-07-29T02:11:15;99546.20;;;15.61;69.07
35307;BME280;21420;52.196;21.416;2023-07-29T02:13:42;99543.41;;;15.54;69.00
35307;BME280;21420;52.196;21.416;2023-07-29T02:19:20;99547.69;;;15.33;68.96
35307;BME280;21420;52.196;21.416;2023-07-29T02:21:47;99547.59;;;15.30;68.89
35307;BME280;21420;52.196;21.416;2023-07-29T02:24:13;99549.23;;;15.27;68.92
35307;BME280;21420;52.196;21.416;2023-07-29T02:26:41;99549.85;;;15.25;69.16
35307;BME280;21420;52.196;21.416;2023-07-29T02:29:08;99549.92;;;15.22;69.14
35307;BME280;21420;52.196;21.416;2023-07-29T02:31:34;99552.73;;;15.17;68.89
35307;BME280;21420;52.196;21.416;2023-07-29T02:34:03;99552.63;;;15.11;69.10
35307;BME280;21420;52.196;21.416;2023-07-29T02:36:30;99554.81;;;15.08;69.09
35307;BME280;21420;52.196;21.416;2023-07-29T02:38:57;99555.35;;;15.05;69.04
35307;BME280;21420;52.196;21.416;2023-07-29T02:41:24;99563.29;;;15.02;69.25
35307;BME280;21420;52.196;21.416;2023-07-29T02:43:51;99565.23;;;14.97;69.43
35307;BME280;21420;52.196;21.416;2023-07-29T02:46:18;99564.64;;;14.92;69.27
35307;BME280;21420;52.196;21.416;2023-07-29T02:48:45;99566.20;;;14.88;69.16
35307;BME280;21420;52.196;21.416;2023-07-29T02:51:12;99567.74;;;14.81;69.25
35307;BME280;21420;52.196;21.416;2023-07-29T02:53:39;99568.25;;;14.75;69.21
35307;BME280;21420;52.196;21.416;2023-07-29T02:56:05;99567.73;;;14.70;69.16
35307;BME280;21420;52.196;21.416;2023-07-29T02:58:36;99567.30;;;14.65;69.11
35307;BME280;21420;52.196;21.416;2023-07-29T03:01:04;99566.58;;;14.61;69.47
35307;BME280;21420;52.196;21.416;2023-07-29T03:03:32;99566.71;;;14.58;69.36
35307;BME280;21420;52.196;21.416;2023-07-29T03:06:02;99567.45;;;14.55;69.34
35307;BME280;21420;52.196;21.416;2023-07-29T03:08:29;99567.27;;;14.52;69.43
35307;BME280;21420;52.196;21.416;2023-07-29T03:10:56;99571.73;;;14.51;69.62
35307;BME280;21420;52.196;21.416;2023-07-29T03:13:23;99575.76;;;14.51;69.43
35307;BME280;21420;52.196;21.416;2023-07-29T03:15:50;99578.30;;;14.47;69.30
35307;BME280;21420;52.196;21.416;2023-07-29T03:18:17;99581.02;;;14.39;69.26
35307;BME280;21420;52.196;21.416;2023-07-29T03:20:44;99583.38;;;14.32;69.11
35307;BME280;21420;52.196;21.416;2023-07-29T03:23:10;99584.05;;;14.26;69.18
35307;BME280;21420;52.196;21.416;2023-07-29T03:25:37;99587.27;;;14.25;69.12
35307;BME280;21420;52.196;21.416;2023-07-29T03:28:04;99588.05;;;14.25;69.10
35307;BME280;21420;52.196;21.416;2023-07-29T03:30:31;99589.67;;;14.24;69.15
35307;BME280;21420;52.196;21.416;2023-07-29T03:32:58;99592.27;;;14.22;69.25
35307;BME280;21420;52.196;21.416;2023-07-29T03:35:24;99595.88;;;14.21;69.30
35307;BME280;21420;52.196;21.416;2023-07-29T03:37:51;99596.95;;;14.27;69.52
35307;BME280;21420;52.196;21.416;2023-07-29T03:40:18;99597.69;;;14.38;69.82
35307;BME280;21420;52.196;21.416;2023-07-29T03:42:44;99599.02;;;14.48;69.80
35307;BME280;21420;52.196;21.416;2023-07-29T03:45:11;99596.46;;;14.53;69.66
35307;BME280;21420;52.196;21.416;2023-07-29T03:47:38;99601.18;;;14.59;69.68
35307;BME280;21420;52.196;21.416;2023-07-29T03:50:05;99602.76;;;14.68;70.02
35307;BME280;21420;52.196;21.416;2023-07-29T03:52:32;99605.74;;;14.79;70.05
35307;BME280;21420;52.196;21.416;2023-07-29T03:54:59;99608.88;;;14.89;69.92
35307;BME280;21420;52.196;21.416;2023-07-29T03:57:26;99610.67;;;14.98;70.12
35307;BME280;21420;52.196;21.416;2023-07-29T03:59:53;99614.82;;;15.06;69.87
35307;BME280;21420;52.196;21.416;2023-07-29T04:02:19;99618.24;;;15.11;70.00
35307;BME280;21420;52.196;21.416;2023-07-29T04:04:46;99620.98;;;15.20;70.13
35307;BME280;21420;52.196;21.416;2023-07-29T04:07:15;99620.05;;;15.26;69.87
35307;BME280;21420;52.196;21.416;2023-07-29T04:09:41;99620.88;;;15.32;69.93
35307;BME280;21420;52.196;21.416;2023-07-29T04:12:10;99625.00;;;15.39;70.11
35307;BME280;21420;52.196;21.416;2023-07-29T04:14:37;99626.31;;;15.50;70.25
35307;BME280;21420;52.196;21.416;2023-07-29T04:17:03;99627.85;;;15.59;70.17
35307;BME280;21420;52.196;21.416;2023-07-29T04:19:30;99626.64;;;15.69;70.09
35307;BME280;21420;52.196;21.416;2023-07-29T04:21:57;99626.15;;;15.78;70.18
35307;BME280;21420;52.196;21.416;2023-07-29T04:24:23;99622.63;;;15.86;70.36
35307;BME280;21420;52.196;21.416;2023-07-29T04:26:50;99629.59;;;15.92;70.48
35307;BME280;21420;52.196;21.416;2023-07-29T04:29:17;99633.55;;;15.99;70.26
35307;BME280;21420;52.196;21.416;2023-07-29T04:31:43;99635.30;;;16.08;70.30
35307;BME280;21420;52.196;21.416;2023-07-29T04:34:10;99635.00;;;16.16;70.41
35307;BME280;21420;52.196;21.416;2023-07-29T04:36:38;99639.11;;;16.25;70.53
35307;BME280;21420;52.196;21.416;2023-07-29T04:39:05;99638.73;;;16.32;70.23
35307;BME280;21420;52.196;21.416;2023-07-29T04:41:32;99641.11;;;16.41;70.14
35307;BME280;21420;52.196;21.416;2023-07-29T04:43:58;99646.65;;;16.49;70.39
35307;BME280;21420;52.196;21.416;2023-07-29T04:46:25;99650.36;;;16.57;70.24
35307;BME280;21420;52.196;21.416;2023-07-29T04:48:52;99648.95;;;16.63;70.43
35307;BME280;21420;52.196;21.416;2023-07-29T04:51:18;99651.40;;;16.68;70.27
35307;BME280;21420;52.196;21.416;2023-07-29T04:53:45;99655.43;;;16.71;70.11
35307;BME280;21420;52.196;21.416;2023-07-29T04:56:12;99658.59;;;16.75;70.02
35307;BME280;21420;52.196;21.416;2023-07-29T04:58:44;99662.06;;;16.75;70.23
35307;BME280;21420;52.196;21.416;2023-07-29T05:01:10;99665.85;;;16.75;70.08
35307;BME280;21420;52.196;21.416;2023-07-29T05:03:37;99665.53;;;16.74;70.06
35307;BME280;21420;52.196;21.416;2023-07-29T05:06:06;99672.95;;;16.73;69.99
35307;BME280;21420;52.196;21.416;2023-07-29T05:08:33;99672.64;;;16.74;69.95
35307;BME280;21420;52.196;21.416;2023-07-29T05:11:00;99679.19;;;16.76;70.15
35307;BME280;21420;52.196;21.416;2023-07-29T05:13:27;99683.41;;;16.80;70.09
35307;BME280;21420;52.196;21.416;2023-07-29T05:15:54;99683.17;;;16.87;70.16
35307;BME280;21420;52.196;21.416;2023-07-29T05:18:21;99686.80;;;16.93;70.18
35307;BME280;21420;52.196;21.416;2023-07-29T05:20:48;99688.69;;;16.98;70.22
35307;BME280;21420;52.196;21.416;2023-07-29T05:23:14;99693.91;;;17.05;70.20
35307;BME280;21420;52.196;21.416;2023-07-29T05:25:41;99696.05;;;17.06;70.07
35307;BME280;21420;52.196;21.416;2023-07-29T05:28:08;99693.67;;;16.99;69.89
35307;BME280;21420;52.196;21.416;2023-07-29T05:30:34;99695.58;;;16.92;69.83
35307;BME280;21420;52.196;21.416;2023-07-29T05:33:08;99697.16;;;16.88;69.73
35307;BME280;21420;52.196;21.416;2023-07-29T05:35:35;99697.23;;;16.83;69.61
35307;BME280;21420;52.196;21.416;2023-07-29T05:38:02;99695.33;;;16.80;69.76
35307;BME280;21420;52.196;21.416;2023-07-29T05:40:30;99696.69;;;16.82;70.05
35307;BME280;21420;52.196;21.416;2023-07-29T05:42:56;99698.02;;;16.84;69.86
35307;BME280;21420;52.196;21.416;2023-07-29T05:45:23;99694.15;;;16.88;69.87
35307;BME280;21420;52.196;21.416;2023-07-29T05:47:50;99698.02;;;16.93;69.91
35307;BME280;21420;52.196;21.416;2023-07-29T05:50:17;99702.69;;;16.98;69.91
35307;BME280;21420;52.196;21.416;2023-07-29T05:52:44;99702.52;;;17.05;69.94
35307;BME280;21420;52.196;21.416;2023-07-29T05:55:10;99699.91;;;17.12;69.90
35307;BME280;21420;52.196;21.416;2023-07-29T05:57:37;99701.11;;;17.09;69.81
35307;BME280;21420;52.196;21.416;2023-07-29T06:00:06;99699.52;;;17.09;69.68
35307;BME280;21420;52.196;21.416;2023-07-29T06:02:38;99697.70;;;17.13;69.78
35307;BME280;21420;52.196;21.416;2023-07-29T06:05:07;99701.40;;;17.19;69.71
35307;BME280;21420;52.196;21.416;2023-07-29T06:07:33;99700.92;;;17.24;69.65
35307;BME280;21420;52.196;21.416;2023-07-29T06:10:00;99705.05;;;17.19;69.37
35307;BME280;21420;52.196;21.416;2023-07-29T06:12:27;99709.23;;;17.21;69.47
35307;BME280;21420;52.196;21.416;2023-07-29T06:14:54;99712.55;;;17.27;69.74
35307;BME280;21420;52.196;21.416;2023-07-29T06:17:20;99717.83;;;17.34;69.69
35307;BME280;21420;52.196;21.416;2023-07-29T06:19:47;99720.44;;;17.38;69.58
35307;BME280;21420;52.196;21.416;2023-07-29T06:22:14;99725.80;;;17.42;69.35
35307;BME280;21420;52.196;21.416;2023-07-29T06:24:40;99729.02;;;17.50;69.68
35307;BME280;21420;52.196;21.416;2023-07-29T06:27:07;99730.51;;;17.58;69.52
35307;BME280;21420;52.196;21.416;2023-07-29T06:29:34;99735.56;;;17.66;69.69
35307;BME280;21420;52.196;21.416;2023-07-29T06:32:01;99736.11;;;17.68;69.66
35307;BME280;21420;52.196;21.416;2023-07-29T06:34:27;99742.73;;;17.72;69.56
35307;BME280;21420;52.196;21.416;2023-07-29T06:36:54;99745.64;;;17.79;69.66
35307;BME280;21420;52.196;21.416;2023-07-29T06:39:21;99747.86;;;17.88;69.55
35307;BME280;21420;52.196;21.416;2023-07-29T06:41:47;99748.23;;;17.94;69.45
35307;BME280;21420;52.196;21.416;2023-07-29T06:44:14;99754.27;;;18.09;69.56
35307;BME280;21420;52.196;21.416;2023-07-29T06:46:41;99758.17;;;18.22;69.64
35307;BME280;21420;52.196;21.416;2023-07-29T06:49:08;99759.09;;;18.30;69.36
35307;BME280;21420;52.196;21.416;2023-07-29T06:51:34;99761.46;;;18.32;69.14
35307;BME280;21420;52.196;21.416;2023-07-29T06:54:02;99760.68;;;18.44;69.38
35307;BME280;21420;52.196;21.416;2023-07-29T06:56:29;99759.30;;;18.64;69.46
35307;BME280;21420;52.196;21.416;2023-07-29T06:58:56;99759.05;;;18.79;69.50
35307;BME280;21420;52.196;21.416;2023-07-29T07:01:23;99761.67;;;19.02;69.67
35307;BME280;21420;52.196;21.416;2023-07-29T07:03:50;99757.59;;;19.27;69.52
35307;BME280;21420;52.196;21.416;2023-07-29T07:06:16;99757.27;;;19.44;69.44
35307;BME280;21420;52.196;21.416;2023-07-29T07:08:43;99761.36;;;19.56;69.18
35307;BME280;21420;52.196;21.416;2023-07-29T07:11:10;99757.84;;;19.67;69.01
35307;BME280;21420;52.196;21.416;2023-07-29T07:13:37;99757.00;;;19.74;68.80
35307;BME280;21420;52.196;21.416;2023-07-29T07:16:03;99756.19;;;19.76;68.72
35307;BME280;21420;52.196;21.416;2023-07-29T07:18:30;99751.85;;;19.73;68.39
35307;BME280;21420;52.196;21.416;2023-07-29T07:20:57;99758.16;;;19.69;68.30
35307;BME280;21420;52.196;21.416;2023-07-29T07:23:24;99757.35;;;19.68;68.27
35307;BME280;21420;52.196;21.416;2023-07-29T07:25:50;99756.21;;;19.80;68.54
35307;BME280;21420;52.196;21.416;2023-07-29T07:28:17;99753.29;;;20.08;68.71
35307;BME280;21420;52.196;21.416;2023-07-29T07:30:44;99749.70;;;20.84;69.24
35307;BME280;21420;52.196;21.416;2023-07-29T07:33:10;99748.35;;;22.05;69.79
35307;BME280;21420;52.196;21.416;2023-07-29T07:35:37;99754.02;;;23.07;69.55
35307;BME280;21420;52.196;21.416;2023-07-29T07:38:04;99753.56;;;23.79;68.79
35307;BME280;21420;52.196;21.416;2023-07-29T07:40:33;99756.80;;;24.00;67.82
35307;BME280;21420;52.196;21.416;2023-07-29T07:43:00;99752.33;;;23.92;66.90
35307;BME280;21420;52.196;21.416;2023-07-29T07:45:26;99747.55;;;23.83;66.71
35307;BME280;21420;52.196;21.416;2023-07-29T07:47:53;99753.98;;;23.90;66.74
35307;BME280;21420;52.196;21.416;2023-07-29T07:50:20;99756.95;;;23.98;66.44
35307;BME280;21420;52.196;21.416;2023-07-29T07:52:47;99759.67;;;23.97;66.25
35307;BME280;21420;52.196;21.416;2023-07-29T07:55:13;99759.45;;;23.91;65.90
35307;BME280;21420;52.196;21.416;2023-07-29T07:57:40;99761.25;;;23.63;65.52
35307;BME280;21420;52.196;21.416;2023-07-29T08:00:07;99759.87;;;23.39;65.28
35307;BME280;21420;52.196;21.416;2023-07-29T08:02:41;99760.98;;;23.32;65.36
35307;BME280;21420;52.196;21.416;2023-07-29T08:05:08;99760.08;;;23.33;65.29
35307;BME280;21420;52.196;21.416;2023-07-29T08:07:34;99756.27;;;23.63;65.65
35307;BME280;21420;52.196;21.416;2023-07-29T08:10:01;99752.68;;;24.58;66.05
35307;BME280;21420;52.196;21.416;2023-07-29T08:12:28;99755.42;;;25.68;66.11
35307;BME280;21420;52.196;21.416;2023-07-29T08:14:54;99752.27;;;26.19;64.95
35307;BME280;21420;52.196;21.416;2023-07-29T08:17:21;99753.86;;;26.28;64.69
35307;BME280;21420;52.196;21.416;2023-07-29T08:19:48;99753.85;;;27.23;65.33
35307;BME280;21420;52.196;21.416;2023-07-29T08:22:14;99752.33;;;28.52;65.40
35307;BME280;21420;52.196;21.416;2023-07-29T08:24:43;99752.11;;;29.61;64.69
35307;BME280;21420;52.196;21.416;2023-07-29T08:27:10;99749.30;;;30.55;63.99
35307;BME280;21420;52.196;21.416;2023-07-29T08:29:36;99745.07;;;31.61;63.90
35307;BME280;21420;52.196;21.416;2023-07-29T08:32:03;99744.86;;;32.68;63.16
35307;BME280;21420;52.196;21.416;2023-07-29T08:34:30;99745.23;;;32.81;59.85
35307;BME280;21420;52.196;21.416;2023-07-29T08:36:57;99747.61;;;32.30;59.19
35307;BME280;21420;52.196;21.416;2023-07-29T08:39:23;99746.76;;;32.00;59.30
35307;BME280;21420;52.196;21.416;2023-07-29T08:42:07;99749.41;;;31.92;58.97
35307;BME280;21420;52.196;21.416;2023-07-29T08:44:41;99742.61;;;31.23;58.40
35307;BME280;21420;52.196;21.416;2023-07-29T08:47:09;99738.23;;;30.50;57.94
35307;BME280;21420;52.196;21.416;2023-07-29T08:49:37;99737.92;;;29.63;57.54
35307;BME280;21420;52.196;21.416;2023-07-29T08:52:05;99734.82;;;28.92;57.73
35307;BME280;21420;52.196;21.416;2023-07-29T08:54:33;99728.05;;;29.18;58.90
35307;BME280;21420;52.196;21.416;2023-07-29T08:56:59;99733.99;;;30.17;59.34
35307;BME280;21420;52.196;21.416;2023-07-29T08:59:28;99734.86;;;31.09;59.22
35307;BME280;21420;52.196;21.416;2023-07-29T09:01:56;99734.02;;;32.16;59.24
35307;BME280;21420;52.196;21.416;2023-07-29T09:04:24;99739.79;;;33.22;58.80
35307;BME280;21420;52.196;21.416;2023-07-29T09:06:53;99745.80;;;33.59;57.19
35307;BME280;21420;52.196;21.416;2023-07-29T09:09:21;99745.39;;;33.71;56.60
35307;BME280;21420;52.196;21.416;2023-07-29T09:11:48;99738.65;;;34.26;56.76
35307;BME280;21420;52.196;21.416;2023-07-29T09:14:15;99740.73;;;35.06;56.88
35307;BME280;21420;52.196;21.416;2023-07-29T09:16:42;99740.63;;;35.42;55.58
35307;BME280;21420;52.196;21.416;2023-07-29T09:19:09;99735.71;;;35.75;55.56
35307;BME280;21420;52.196;21.416;2023-07-29T09:21:39;99730.70;;;36.50;55.38
35307;BME280;21420;52.196;21.416;2023-07-29T09:24:07;99733.98;;;36.77;54.30
35307;BME280;21420;52.196;21.416;2023-07-29T09:26:34;99731.95;;;36.39;53.86
35307;BME280;21420;52.196;21.416;2023-07-29T09:29:02;99732.55;;;36.16;53.65
35307;BME280;21420;52.196;21.416;2023-07-29T09:31:29;99726.97;;;35.65;53.28
35307;BME280;21420;52.196;21.416;2023-07-29T09:33:58;99729.66;;;35.73;53.60
35307;BME280;21420;52.196;21.416;2023-07-29T09:36:26;99733.73;;;36.31;53.28
35307;BME280;21420;52.196;21.416;2023-07-29T09:38:54;99732.84;;;36.73;52.40
35307;BME280;21420;52.196;21.416;2023-07-29T09:41:26;99732.73;;;37.08;52.19
35307;BME280;21420;52.196;21.416;2023-07-29T09:44:00;99732.48;;;37.45;51.82
35307;BME280;21420;52.196;21.416;2023-07-29T09:46:35;99731.85;;;37.17;49.68
35307;BME280;21420;52.196;21.416;2023-07-29T09:49:04;99730.73;;;37.00;50.40
35307;BME280;21420;52.196;21.416;2023-07-29T09:51:37;99728.16;;;37.62;51.06
35307;BME280;21420;52.196;21.416;2023-07-29T09:54:05;99723.27;;;38.38;50.67
35307;BME280;21420;52.196;21.416;2023-07-29T09:56:32;99716.61;;;38.94;50.67
35307;BME280;21420;52.196;21.416;2023-07-29T09:58:59;99713.62;;;38.99;49.75
35307;BME280;21420;52.196;21.416;2023-07-29T10:01:29;99712.79;;;37.93;48.19
35307;BME280;21420;52.196;21.416;2023-07-29T10:03:56;99708.89;;;36.82;47.88
35307;BME280;21420;52.196;21.416;2023-07-29T10:06:24;99703.95;;;36.98;49.07
35307;BME280;21420;52.196;21.416;2023-07-29T10:08:51;99704.89;;;37.90;49.69
35307;BME280;21420;52.196;21.416;2023-07-29T10:11:20;99703.79;;;38.81;49.16
35307;BME280;21420;52.196;21.416;2023-07-29T10:13:48;99699.98;;;38.48;47.13
35307;BME280;21420;52.196;21.416;2023-07-29T10:16:32;99700.94;;;37.72;46.87
35307;BME280;21420;52.196;21.416;2023-07-29T10:19:01;99701.95;;;37.46;46.13
35307;BME280;21420;52.196;21.416;2023-07-29T10:21:29;99701.18;;;37.10;45.77
35307;BME280;21420;52.196;21.416;2023-07-29T10:24:01;99701.89;;;36.62;45.37
35307;BME280;21420;52.196;21.416;2023-07-29T10:26:31;99701.64;;;36.72;46.24
35307;BME280;21420;52.196;21.416;2023-07-29T10:28:59;99696.79;;;37.32;47.18
35307;BME280;21420;52.196;21.416;2023-07-29T10:31:32;99698.40;;;38.33;47.32
35307;BME280;21420;52.196;21.416;2023-07-29T10:33:59;99695.55;;;38.91;46.40
35307;BME280;21420;52.196;21.416;2023-07-29T10:36:27;99696.46;;;39.25;46.02
35307;BME280;21420;52.196;21.416;2023-07-29T10:38:55;99697.83;;;39.30;45.22
35307;BME280;21420;52.196;21.416;2023-07-29T10:41:22;99689.57;;;39.50;45.29
35307;BME280;21420;52.196;21.416;2023-07-29T10:43:49;99689.47;;;39.98;44.97
35307;BME280;21420;52.196;21.416;2023-07-29T10:46:20;99683.67;;;39.87;44.37
35307;BME280;21420;52.196;21.416;2023-07-29T10:53:58;99682.95;;;41.63;44.19
35307;BME280;21420;52.196;21.416;2023-07-29T10:58:57;99677.04;;;40.98;42.76
35307;BME280;21420;52.196;21.416;2023-07-29T11:01:31;99676.29;;;40.73;42.47
35307;BME280;21420;52.196;21.416;2023-07-29T11:12:50;99665.43;;;41.34;41.95
35307;BME280;21420;52.196;21.416;2023-07-29T11:15:27;99662.20;;;41.19;41.11
35307;BME280;21420;52.196;21.416;2023-07-29T11:17:58;99661.48;;;40.43;39.76
35307;BME280;21420;52.196;21.416;2023-07-29T11:20:29;99660.08;;;39.68;40.10
35307;BME280;21420;52.196;21.416;2023-07-29T11:22:58;99657.06;;;39.75;40.50
35307;BME280;21420;52.196;21.416;2023-07-29T11:25:27;99660.75;;;40.05;40.17
35307;BME280;21420;52.196;21.416;2023-07-29T11:27:57;99655.70;;;40.01;40.49
35307;BME280;21420;52.196;21.416;2023-07-29T11:30:24;99654.19;;;40.07;40.52
35307;BME280;21420;52.196;21.416;2023-07-29T11:32:56;99650.52;;;39.98;40.16
35307;BME280;21420;52.196;21.416;2023-07-29T11:35:23;99642.10;;;39.97;40.31
35307;BME280;21420;52.196;21.416;2023-07-29T11:37:51;99640.92;;;40.25;40.13
35307;BME280;21420;52.196;21.416;2023-07-29T11:40:20;99638.26;;;40.47;40.10
35307;BME280;21420;52.196;21.416;2023-07-29T11:42:48;99636.92;;;41.01;40.21
35307;BME280;21420;52.196;21.416;2023-07-29T11:45:18;99641.33;;;41.09;39.20
35307;BME280;21420;52.196;21.416;2023-07-29T11:47:45;99635.35;;;40.42;38.57
35307;BME280;21420;52.196;21.416;2023-07-29T11:50:13;99631.79;;;39.82;38.11
35307;BME280;21420;52.196;21.416;2023-07-29T11:52:42;99627.54;;;39.27;37.65
35307;BME280;21420;52.196;21.416;2023-07-29T11:55:09;99625.66;;;38.98;38.03
35307;BME280;21420;52.196;21.416;2023-07-29T11:57:38;99622.24;;;38.61;38.14
35307;BME280;21420;52.196;21.416;2023-07-29T12:00:08;99625.15;;;37.76;37.61
35307;BME280;21420;52.196;21.416;2023-07-29T12:02:41;99625.32;;;37.20;37.74
35307;BME280;21420;52.196;21.416;2023-07-29T12:05:09;99621.25;;;36.93;37.79
35307;BME280;21420;52.196;21.416;2023-07-29T12:07:39;99615.34;;;36.90;38.26
35307;BME280;21420;52.196;21.416;2023-07-29T12:10:09;99613.85;;;37.01;38.17
35307;BME280;21420;52.196;21.416;2023-07-29T12:12:49;99607.16;;;37.38;38.71
35307;BME280;21420;52.196;21.416;2023-07-29T12:15:27;99603.73;;;37.63;38.31
35307;BME280;21420;52.196;21.416;2023-07-29T12:17:59;99600.60;;;37.78;38.42
35307;BME280;21420;52.196;21.416;2023-07-29T12:20:26;99599.04;;;38.06;38.31
35307;BME280;21420;52.196;21.416;2023-07-29T12:22:55;99593.73;;;37.72;37.38
35307;BME280;21420;52.196;21.416;2023-07-29T12:25:22;99587.38;;;37.25;37.57
35307;BME280;21420;52.196;21.416;2023-07-29T12:27:49;99586.13;;;36.92;37.26
35307;BME280;21420;52.196;21.416;2023-07-29T12:30:20;99587.88;;;36.92;37.59
35307;BME280;21420;52.196;21.416;2023-07-29T12:32:47;99586.34;;;36.70;37.43
35307;BME280;21420;52.196;21.416;2023-07-29T12:35:15;99583.17;;;36.66;37.88
35307;BME280;21420;52.196;21.416;2023-07-29T12:37:42;99577.62;;;36.76;37.70
35307;BME280;21420;52.196;21.416;2023-07-29T12:40:23;99574.20;;;36.62;37.39
35307;BME280;21420;52.196;21.416;2023-07-29T12:42:50;99575.73;;;36.37;37.81
35307;BME280;21420;52.196;21.416;2023-07-29T12:45:18;99577.38;;;36.33;37.77
35307;BME280;21420;52.196;21.416;2023-07-29T12:47:45;99574.16;;;36.24;37.79
35307;BME280;21420;52.196;21.416;2023-07-29T12:50:12;99574.29;;;36.36;38.22
35307;BME280;21420;52.196;21.416;2023-07-29T12:52:38;99577.52;;;36.70;38.29
35307;BME280;21420;52.196;21.416;2023-07-29T12:55:06;99571.44;;;36.49;37.55
35307;BME280;21420;52.196;21.416;2023-07-29T12:57:35;99570.70;;;35.94;37.01
35307;BME280;21420;52.196;21.416;2023-07-29T13:00:03;99567.03;;;35.55;37.15
35307;BME280;21420;52.196;21.416;2023-07-29T13:02:31;99568.52;;;35.26;37.14
35307;BME280;21420;52.196;21.416;2023-07-29T13:04:58;99566.86;;;34.78;37.11
35307;BME280;21420;52.196;21.416;2023-07-29T13:07:25;99565.08;;;34.37;37.38
35307;BME280;21420;52.196;21.416;2023-07-29T13:09:52;99561.04;;;34.26;37.66
35307;BME280;21420;52.196;21.416;2023-07-29T13:12:18;99558.94;;;34.12;37.66
35307;BME280;21420;52.196;21.416;2023-07-29T13:14:45;99555.77;;;34.22;37.97
35307;BME280;21420;52.196;21.416;2023-07-29T13:17:12;99554.81;;;34.48;38.08